메인 페이지
METAR-TAF:

METAR-TAF

공항 :

부줌부라, 부룬디

위도: 03-19S, 경도: 029-19E, 고도: 782m

현재 날씨관측

예보는 12 시간 6분 전, 15:00시(UTC)에 발표되었습니다.
남남동2kt
온도 29°C
습도 55%
기압 1009 hPa
시정 10km 이상
고도 3000ft 상공 구름 보통, 타워링 적운.
고도 10000ft 상공 구름 많음

METAR: HBBA 151500Z 16002KT 9999 SCT030TCU BKN100 29/19 Q1009 NOSIG

시각: 05:06 (03:06 UTC)

예보

예보는 4 시간 6분 전, 23:00시(UTC)에 발표되었습니다.
예보 대상 시간: 16일 00시부터 17일 06시까지 (UTC)
북동4kt
시정 10km 이상
고도 3000ft 상공 구름 조금
고도 10000ft 상공 구름 많음
전환 중
16일 08시부터 16일 10시까지 (UTC)
12kt, 순간 최대 풍속 25kt
시정 10km 이상
고도 3000ft 상공 구름 보통
고도 10000ft 상공 구름 많음
전환 중
16일 16시부터 16일 18시까지 (UTC)
4kt
시정 10km 이상
1500m 미만 상공 구름 및 적란운 없음
전환 중
17일 03시부터 17일 05시까지 (UTC)
여러 방향의 바람 3kt
시정 10km 이상
고도 2500ft 상공 구름 조금
고도 10000ft 상공 구름 많음

TAF: HBBA 152300Z 1600/1706 04004KT 9999 FEW030 BKN100 BECMG 1608/1610 18012G25KT 9999 SCT030 BKN100 BECMG 1616/1618 18004KT CAVOK BECMG 1703/1705 VRB03KT 9999 FEW025 BKN100

4,000개 이상의 공항 관측 자료 및 예보 (METAR 및 TAF 보고).

지도상에서 검색 가능한 기상관측소가 노란 점과 빨간 점으로 표시되어 있습니다.

기상관측소 명을 보려면 표시 위로 마우스를 이동하세요.

날씨 관측과 예보를 보려면 클릭하세요.

지도 변경 : 확대하려면 엑스 표시가 있는 녹색 버튼, 축소하려면 빼기 표시가 있는 녹색 버튼, 다음 페이지의 지도를 보려면 녹색 화살표를 클릭하세요.


METAR-TAF: